Tangier, VA

7:10 PM EST on December 28, 2014 (GMT -0500)
University of Southern Crisfield | Change Station
CLOSE
Current Station
Personal Weather Station
Location: Crisfield, MD
Elevation: 7 ft
Nearby Weather Stations

Elev 7 ft 37.98 °N, 75.85 °W | Updated 13 seconds ago

Overcast
Overcast
52.9 °F
Feels Like 52.9 °F
N
0.0
Wind Variable Wind from WNW
Gusts 0.0 mph

Today
High -- | Low -- °F
--% Chance of Precip.
Yesterday
High -- | Low -- °F
Precip. -- in
7:18 AM 4:52 PM
First Quarter, 53% visible
Pressure 30.02 in
Visibility 10.0 miles
Clouds Mostly Cloudy 8000 ft
Overcast 10000 ft
Dew Point 44 °F
Humidity 73%
Rainfall 0.00 in
Snow Depth Not available.
UV 0 out of 12
Pollen .10 out of 12
Air Quality Not available.
Flu Activity Not available.
METAR KMFV 282355Z AUTO 00000KT 10SM BKN080 OVC100 11/07 A3002 RMK AO2

More Conditions Fewer Conditions

Pressure 30.02 in
Visibility 10.0 miles
Clouds Mostly Cloudy 8000 ft
Overcast 10000 ft
Dew Point 44 °F
Humidity 73%
Rainfall 0.00 in
Snow Depth Not available.
UV 0 out of 12
Pollen .10 out of 12
Air Quality Not available.
Flu Activity Not available.
METAR KMFV 282355Z AUTO 00000KT 10SM BKN080 OVC100 11/07 A3002 RMK AO2

More Conditions Fewer Conditions

10-Day Weather Forecast

Almanac

Astronomy

Dec. 28, 2014 Rise Set
Actual Time
Civil Twilight
Nautical Twilight
Astronomical Twilight
Moon
Length of Visible Light
Length of Day
Tomorrow will be .
, % of the Moon is Illuminated

Today's Extremes

State Highs State Lows

Community

WunderPhotos

Upload Photos

1,781,468 photos uploaded!

WunderBlogs® & News

Nearby

Air Quality

  Air Quality AQ Index Pollutant
Not available.

Snow Depth

Station Depth Elevation

Earthquake Activity

City Distance Mag. Time & Date
Minimum magnitude displayed is 2.5.

Coastal Water Temperatures

Place Temperature

Nearby Weather Stations